Time;durP1;ratioP1;P1;durP2;ratioP2;P2;SDS_P1;SDS_P2;PMS_P1;PMS_P2;Temp;Humidity;BMP_temperature;BMP_pressure;BME280_temperature;BME280_humidity;BME280_pressure;Samples;Min_cycle;Max_cycle;Signal;HPM_P1;HPM_P2
2022/03/30 05:22:44;;;;;;;;;;;;;;;9.10;100.00;97386.88;5143913;24;19975;-68
2022/03/30 05:25:12;;;;;;;;;;;;;;;9.16;100.00;97398.38;4830888;29;19966;-69
2022/03/30 05:27:39;;;;;;;;;;;;;;;9.16;100.00;97395.59;4830403;29;19955;-68
2022/03/30 05:30:07;;;;;;;;;;;;;;;9.20;100.00;97391.56;4830905;29;19963;-68
2022/03/30 05:32:35;;;;;;;;;;;;;;;9.14;100.00;97392.44;4830377;29;19972;-69
2022/03/30 05:35:02;;;;;;;;;;;;;;;8.88;100.00;97395.78;4830464;29;19984;-69
2022/03/30 05:37:31;;;;;;;;;;;;;;;8.93;100.00;97395.34;4830624;29;19952;-69
2022/03/30 05:39:58;;;;;;;;;;;;;;;8.84;100.00;97398.63;4827641;29;19953;-69
2022/03/30 05:42:25;;;;;;;;;;;;;;;8.70;100.00;97397.91;4814350;29;20217;-69
2022/03/30 05:44:54;;;;;;;;;;;;;;;8.63;100.00;97393.19;4803545;29;19960;-69
2022/03/30 05:47:22;;;;;;;;;;;;;;;8.63;100.00;97389.59;4828677;29;19954;-69
2022/03/30 05:49:49;;;;;;;;;;;;;;;8.62;100.00;97388.81;4830222;29;20297;-69
2022/03/30 05:52:16;;;;;;;;;;;;;;;8.63;100.00;97386.81;4830139;29;19953;-69
2022/03/30 05:54:44;;;;;;;;;;;;;;;8.56;100.00;97387.63;4829922;29;19959;-68
2022/03/30 05:57:11;;;;;;;;;;;;;;;8.52;100.00;97398.00;4829884;29;19963;-68
2022/03/30 05:59:39;;;;;;;;;;;;;;;8.49;100.00;97391.25;4822712;29;20236;-69
2022/03/30 06:02:08;;;;;;;;;;;;;;;8.55;100.00;97392.44;4812347;29;19951;-68
2022/03/30 06:04:36;;;;;;;;;;;;;;;8.53;100.00;97385.69;4812392;29;19957;-69
2022/03/30 06:07:03;;;;;;;;;;;;;;;8.49;100.00;97379.31;4812082;29;19956;-69
2022/03/30 06:09:33;;;;;;;;;;;;;;;8.48;100.00;97374.97;4811550;29;20238;-69
2022/03/30 06:12:11;;;;;;;;;;;;;;;8.52;100.00;97378.50;4812344;29;19951;-69
2022/03/30 06:14:39;;;;;;;;;;;;;;;8.56;100.00;97380.06;4811849;29;19953;-69
2022/03/30 06:17:07;;;;;;;;;;;;;;;8.53;100.00;97386.44;4811859;29;19958;-68
2022/03/30 06:19:35;;;;;;;;;;;;;;;8.46;100.00;97392.06;4828774;29;19980;-69
2022/03/30 06:22:05;;;;;;;;;;;;;;;8.46;100.00;97386.47;4826758;29;19979;-68
2022/03/30 06:24:34;;;;;;;;;;;;;;;8.48;100.00;97389.69;4829061;29;20580;-68
2022/03/30 06:27:02;;;;;;;;;;;;;;;8.49;100.00;97387.66;4829984;29;19955;-69
2022/03/30 06:29:29;;;;;;;;;;;;;;;8.48;100.00;97386.09;4828791;29;19955;-69
2022/03/30 06:31:56;;;;;;;;;;;;;;;8.41;100.00;97386.91;4829495;29;19980;-69
2022/03/30 06:34:26;;;;;;;;;;;;;;;8.43;100.00;97392.09;4828385;29;21655;-69
2022/03/30 06:36:53;;;;;;;;;;;;;;;8.45;100.00;97387.69;4829096;29;19957;-69
2022/03/30 06:39:20;;;;;;;;;;;;;;;8.47;100.00;97388.09;4828508;29;19976;-69
2022/03/30 06:41:48;;;;;;;;;;;;;;;8.56;100.00;97374.50;4834846;29;19951;-69
2022/03/30 06:44:16;;;;;;;;;;;;;;;8.64;100.00;97363.31;4828967;29;19955;-69
2022/03/30 06:46:44;;;;;;;;;;;;;;;8.74;100.00;97373.59;4829393;29;19959;-69
2022/03/30 06:49:11;;;;;;;;;;;;;;;8.82;100.00;97373.16;4829159;29;19950;-69
2022/03/30 06:51:38;;;;;;;;;;;;;;;8.94;100.00;97371.88;4829028;29;19961;-69
2022/03/30 06:54:06;;;;;;;;;;;;;;;8.98;100.00;97378.19;4824568;29;19953;-69
2022/03/30 06:56:33;;;;;;;;;;;;;;;9.04;100.00;97380.16;4828025;29;20256;-69
2022/03/30 06:59:01;;;;;;;;;;;;;;;9.12;100.00;97375.31;4828362;29;19971;-69
2022/03/30 07:01:31;;;;;;;;;;;;;;;9.19;100.00;97366.91;4829566;29;19948;-69
2022/03/30 07:03:58;;;;;;;;;;;;;;;9.14;100.00;97376.50;4828719;29;19948;-69
2022/03/30 07:06:26;;;;;;;;;;;;;;;9.21;100.00;97370.06;4828784;29;19951;-69
2022/03/30 07:11:39;;;;;;;;;;;;;;;9.29;100.00;97368.00;4829391;29;19948;-69
2022/03/30 07:14:07;;;;;;;;;;;;;;;9.25;100.00;97371.59;4828314;29;19982;-69
2022/03/30 07:16:34;;;;;;;;;;;;;;;9.00;100.00;97368.22;4828671;29;20360;-69
2022/03/30 07:19:02;;;;;;;;;;;;;;;9.20;100.00;97363.69;4828406;29;19970;-69
2022/03/30 07:21:29;;;;;;;;;;;;;;;9.27;100.00;97366.41;4828459;29;20005;-69
2022/03/30 07:23:56;;;;;;;;;;;;;;;9.03;100.00;97358.25;4827841;29;19972;-69
2022/03/30 07:26:24;;;;;;;;;;;;;;;8.85;100.00;97346.44;4827163;29;19953;-69
2022/03/30 07:28:51;;;;;;;;;;;;;;;8.98;100.00;97353.91;4827573;29;20007;-69
2022/03/30 07:31:18;;;;;;;;;;;;;;;8.94;100.00;97344.78;4828266;29;19958;-69
2022/03/30 07:33:46;;;;;;;;;;;;;;;8.99;100.00;97358.28;4827384;29;19951;-69
2022/03/30 07:36:13;;;;;;;;;;;;;;;8.86;100.00;97346.03;4827599;29;19966;-69
2022/03/30 07:38:41;;;;;;;;;;;;;;;8.72;100.00;97353.69;4828654;29;19978;-69
2022/03/30 07:41:08;;;;;;;;;;;;;;;8.74;100.00;97340.16;4827530;29;19959;-69
2022/03/30 07:43:35;;;;;;;;;;;;;;;8.64;100.00;97336.22;4827912;29;19955;-69
2022/03/30 07:46:03;;;;;;;;;;;;;;;8.56;100.00;97337.47;4810830;29;19950;-69
2022/03/30 07:48:30;;;;;;;;;;;;;;;8.67;100.00;97340.19;4828733;29;20326;-69
2022/03/30 07:50:57;;;;;;;;;;;;;;;8.61;100.00;97348.19;4827617;29;20372;-69
2022/03/30 07:53:28;;;;;;;;;;;;;;;8.54;100.00;97348.25;4812113;29;20363;-69
2022/03/30 07:55:55;;;;;;;;;;;;;;;8.80;100.00;97356.03;4827682;29;20016;-69
2022/03/30 07:58:23;;;;;;;;;;;;;;;8.86;100.00;97350.81;4827580;29;20294;-68
2022/03/30 08:00:51;;;;;;;;;;;;;;;8.71;100.00;97346.53;4828302;29;20041;-69
2022/03/30 08:03:21;;;;;;;;;;;;;;;8.84;100.00;97339.28;4826945;29;19959;-69
2022/03/30 08:05:49;;;;;;;;;;;;;;;8.83;100.00;97348.84;4810315;29;19962;-69
2022/03/30 08:08:16;;;;;;;;;;;;;;;8.67;100.00;97356.91;4827400;29;20345;-69
2022/03/30 08:10:45;;;;;;;;;;;;;;;8.55;100.00;97349.84;4827663;29;19956;-69
2022/03/30 08:13:13;;;;;;;;;;;;;;;8.72;100.00;97354.50;4826660;29;19961;-69
2022/03/30 08:15:42;;;;;;;;;;;;;;;8.68;100.00;97358.53;4822784;29;19948;-69
2022/03/30 08:18:10;;;;;;;;;;;;;;;8.56;100.00;97362.56;4826970;29;20316;-69
2022/03/30 08:23:23;;;;;;;;;;;;;;;8.68;100.00;97361.31;4823025;29;19969;-69
2022/03/30 08:25:51;;;;;;;;;;;;;;;8.71;100.00;97352.09;4813969;29;19948;-69
2022/03/30 08:28:18;;;;;;;;;;;;;;;8.69;100.00;97360.88;4827248;29;19955;-69
2022/03/30 08:30:48;;;;;;;;;;;;;;;8.58;100.00;97358.16;4820822;29;20262;-69
2022/03/30 08:33:18;;;;;;;;;;;;;;;8.58;100.00;97363.72;4809813;29;19952;-69
2022/03/30 08:35:46;;;;;;;;;;;;;;;8.60;100.00;97357.78;4817477;29;19958;-69
2022/03/30 08:38:13;;;;;;;;;;;;;;;8.62;100.00;97365.72;4828215;29;20273;-69
2022/03/30 08:40:41;;;;;;;;;;;;;;;8.67;100.00;97356.91;4827385;29;19982;-69
2022/03/30 08:43:09;;;;;;;;;;;;;;;8.71;100.00;97358.47;4827348;29;19952;-69
2022/03/30 08:45:36;;;;;;;;;;;;;;;8.59;100.00;97354.19;4827170;29;19968;-69
2022/03/30 08:48:04;;;;;;;;;;;;;;;8.61;100.00;97348.19;4827453;29;19957;-69
2022/03/30 08:50:32;;;;;;;;;;;;;;;8.61;100.00;97350.22;4830170;29;19954;-69
2022/03/30 08:53:03;;;;;;;;;;;;;;;8.70;100.00;97347.75;4825799;29;20578;-69
2022/03/30 08:55:31;;;;;;;;;;;;;;;8.73;100.00;97346.94;4827022;29;20336;-69
2022/03/30 08:58:00;;;;;;;;;;;;;;;8.70;100.00;97344.97;4827393;29;19962;-68
2022/03/30 09:00:30;;;;;;;;;;;;;;;8.62;100.00;97355.38;4826914;29;20374;-69
2022/03/30 09:03:01;;;;;;;;;;;;;;;8.65;100.00;97353.75;4826890;29;19961;-69
2022/03/30 09:05:30;;;;;;;;;;;;;;;8.61;100.00;97353.00;4826771;29;20249;-69
2022/03/30 09:08:08;;;;;;;;;;;;;;;8.65;100.00;97351.75;4827124;29;19952;-68
2022/03/30 09:10:36;;;;;;;;;;;;;;;8.74;100.00;97349.31;4827716;29;20255;-68
2022/03/30 09:13:05;;;;;;;;;;;;;;;8.55;100.00;97347.03;4826425;29;20341;-69
2022/03/30 09:15:33;;;;;;;;;;;;;;;8.74;100.00;97342.94;4826725;29;19950;-69
2022/03/30 09:18:01;;;;;;;;;;;;;;;8.62;100.00;97349.00;4827526;29;20243;-69
2022/03/30 09:20:34;;;;;;;;;;;;;;;8.67;100.00;97343.78;4827587;29;19966;-68
2022/03/30 09:23:02;;;;;;;;;;;;;;;8.75;100.00;97344.53;4826575;29;19979;-68
2022/03/30 09:25:45;;;;;;;;;;;;;;;8.89;100.00;97339.63;4818279;29;19950;-68
2022/03/30 09:28:13;;;;;;;;;;;;;;;9.02;100.00;97334.38;4823872;29;19952;-69
2022/03/30 09:30:41;;;;;;;;;;;;;;;8.85;100.00;97333.28;4810140;29;20237;-69
2022/03/30 09:33:10;;;;;;;;;;;;;;;9.00;100.00;97325.59;4815051;29;20078;-69
2022/03/30 09:35:39;;;;;;;;;;;;;;;9.12;100.00;97333.50;4826436;29;19958;-69
2022/03/30 09:38:14;;;;;;;;;;;;;;;9.07;100.00;97326.34;4820501;29;19951;-69
2022/03/30 09:40:48;;;;;;;;;;;;;;;9.02;100.00;97326.78;4824052;29;19974;-69
2022/03/30 09:43:21;;;;;;;;;;;;;;;9.08;100.00;97315.97;4826635;29;19954;-69
2022/03/30 09:45:50;;;;;;;;;;;;;;;9.21;100.00;97314.28;4826181;29;20257;-69
2022/03/30 09:48:22;;;;;;;;;;;;;;;9.05;100.00;97314.00;4826742;29;19955;-69
2022/03/30 09:50:51;;;;;;;;;;;;;;;8.99;100.00;97304.50;4816825;29;19955;-69
2022/03/30 09:53:21;;;;;;;;;;;;;;;9.20;100.00;97307.09;4820550;29;20256;-69
2022/03/30 09:55:54;;;;;;;;;;;;;;;9.24;100.00;97297.50;4818250;29;19954;-69
2022/03/30 09:58:23;;;;;;;;;;;;;;;9.30;100.00;97299.81;4826703;29;19952;-69
2022/03/30 10:01:05;;;;;;;;;;;;;;;9.42;100.00;97290.94;4815019;29;20444;-69
2022/03/30 10:03:52;;;;;;;;;;;;;;;9.44;100.00;97294.13;4826705;29;19956;-69
2022/03/30 10:06:24;;;;;;;;;;;;;;;9.56;100.00;97283.19;4829840;29;19964;-69
2022/03/30 10:08:52;;;;;;;;;;;;;;;9.50;100.00;97289.66;4829845;29;19955;-69
2022/03/30 10:11:21;;;;;;;;;;;;;;;9.42;100.00;97282.56;4830187;29;20254;-69
2022/03/30 10:13:50;;;;;;;;;;;;;;;9.49;100.00;97282.47;4829161;29;20211;-69
2022/03/30 10:16:35;;;;;;;;;;;;;;;9.60;100.00;97285.97;4829676;29;19953;-69
2022/03/30 10:19:02;;;;;;;;;;;;;;;9.61;100.00;97281.97;4816788;29;19951;-69
2022/03/30 10:21:54;;;;;;;;;;;;;;;9.58;100.00;97278.03;4847844;29;19978;-69
2022/03/30 10:24:27;;;;;;;;;;;;;;;9.74;100.00;97269.03;4847937;29;20321;-69
2022/03/30 10:27:11;;;;;;;;;;;;;;;9.77;100.00;97269.00;4847439;29;19962;-68
2022/03/30 10:29:46;;;;;;;;;;;;;;;9.85;100.00;97267.69;4843876;29;19960;-69
2022/03/30 10:32:17;;;;;;;;;;;;;;;9.88;100.00;97264.06;4822939;29;20342;-69
2022/03/30 10:35:02;;;;;;;;;;;;;;;9.96;100.00;97253.59;4827870;29;19955;-69
2022/03/30 10:37:33;;;;;;;;;;;;;;;10.14;100.00;97257.00;4829775;29;19966;-69
2022/03/30 10:40:03;;;;;;;;;;;;;;;10.16;100.00;97251.78;4828820;29;19951;-69
2022/03/30 10:42:45;;;;;;;;;;;;;;;10.21;100.00;97254.09;4828433;29;19980;-69
2022/03/30 10:45:27;;;;;;;;;;;;;;;10.24;100.00;97242.09;4827560;29;19961;-69
2022/03/30 10:48:14;;;;;;;;;;;;;;;10.40;100.00;97238.66;4828920;29;20511;-69
2022/03/30 10:50:45;;;;;;;;;;;;;;;10.59;100.00;97240.75;4829519;29;19956;-69
2022/03/30 10:53:31;;;;;;;;;;;;;;;10.64;100.00;97240.25;4830788;29;19955;-69
2022/03/30 10:56:08;;;;;;;;;;;;;;;10.68;100.00;97235.41;4810290;29;19957;-69
2022/03/30 10:58:36;;;;;;;;;;;;;;;10.77;100.00;97237.66;4811009;29;20368;-69
2022/03/30 11:01:18;;;;;;;;;;;;;;;10.75;100.00;97243.69;4827830;29;19973;-69
2022/03/30 11:03:55;;;;;;;;;;;;;;;10.60;100.00;97242.34;4827294;29;20343;-69
2022/03/30 11:06:23;;;;;;;;;;;;;;;10.69;100.00;97238.97;4828727;29;19952;-69
2022/03/30 11:08:51;;;;;;;;;;;;;;;10.82;100.00;97245.56;4829451;29;19952;-69
2022/03/30 11:11:23;;;;;;;;;;;;;;;10.65;100.00;97232.66;4828287;29;19961;-69
2022/03/30 11:14:09;;;;;;;;;;;;;;;10.50;100.00;97229.31;4824152;29;20244;-69
2022/03/30 11:16:49;;;;;;;;;;;;;;;10.58;100.00;97216.81;4816507;29;20364;-69
2022/03/30 11:19:17;;;;;;;;;;;;;;;10.53;100.00;97214.50;4794861;29;19949;-69
2022/03/30 11:21:54;;;;;;;;;;;;;;;10.55;100.00;97206.47;4814376;29;19970;-68
2022/03/30 11:24:25;;;;;;;;;;;;;;;10.51;100.00;97214.13;4828392;29;19950;-69
2022/03/30 11:26:52;;;;;;;;;;;;;;;10.59;100.00;97210.00;4828819;29;20366;-69
2022/03/30 11:29:38;;;;;;;;;;;;;;;10.55;100.00;97210.06;4828564;29;19955;-69
2022/03/30 11:32:25;;;;;;;;;;;;;;;10.59;100.00;97196.00;4829222;29;19944;-69
2022/03/30 11:34:54;;;;;;;;;;;;;;;10.58;100.00;97197.25;4827976;29;20343;-69
2022/03/30 11:37:26;;;;;;;;;;;;;;;10.45;100.00;97199.03;4828548;29;19958;-69
2022/03/30 11:40:04;;;;;;;;;;;;;;;10.36;100.00;97184.81;4823251;29;19957;-69
2022/03/30 11:42:34;;;;;;;;;;;;;;;10.28;100.00;97178.56;4819060;29;19972;-69
2022/03/30 11:45:13;;;;;;;;;;;;;;;10.31;100.00;97176.91;4827753;29;19950;-69
2022/03/30 11:47:56;;;;;;;;;;;;;;;10.33;100.00;97174.50;4827504;29;19948;-69
2022/03/30 11:50:26;;;;;;;;;;;;;;;10.21;100.00;97183.47;4840835;29;19959;-69
2022/03/30 11:52:55;;;;;;;;;;;;;;;10.17;100.00;97179.94;4833026;29;19956;-69
2022/03/30 11:55:23;;;;;;;;;;;;;;;10.17;100.00;97175.13;4827962;29;19948;-69
2022/03/30 11:57:51;;;;;;;;;;;;;;;10.05;100.00;97178.47;4828338;29;19953;-69
2022/03/30 12:00:22;;;;;;;;;;;;;;;10.00;100.00;97169.78;4827894;29;19950;-69
2022/03/30 12:02:50;;;;;;;;;;;;;;;10.08;100.00;97165.66;4827969;29;19954;-69
2022/03/30 12:05:18;;;;;;;;;;;;;;;10.14;100.00;97164.03;4827589;29;19959;-69
2022/03/30 12:07:50;;;;;;;;;;;;;;;10.27;100.00;97151.06;4824356;29;19954;-69
2022/03/30 12:10:18;;;;;;;;;;;;;;;10.21;100.00;97155.53;4824334;29;19952;-69
2022/03/30 12:12:45;;;;;;;;;;;;;;;10.18;100.00;97150.78;4824463;29;20338;-69
2022/03/30 12:15:16;;;;;;;;;;;;;;;10.20;100.00;97145.56;4823746;29;19949;-69
2022/03/30 12:18:11;;;;;;;;;;;;;;;10.10;100.00;97138.13;4813789;29;19962;-69
2022/03/30 12:20:38;;;;;;;;;;;;;;;10.07;100.00;97136.97;4823662;29;19951;-69
2022/03/30 12:23:07;;;;;;;;;;;;;;;9.99;100.00;97126.31;4820265;29;19977;-69
2022/03/30 12:25:39;;;;;;;;;;;;;;;9.97;100.00;97125.94;4811064;29;19955;-68
2022/03/30 12:28:06;;;;;;;;;;;;;;;10.03;100.00;97122.25;4822545;29;19950;-68
2022/03/30 12:30:35;;;;;;;;;;;;;;;10.10;100.00;97118.56;4824566;29;20246;-68
2022/03/30 12:33:02;;;;;;;;;;;;;;;10.26;100.00;97118.72;4826494;29;20259;-68
2022/03/30 12:35:31;;;;;;;;;;;;;;;10.27;100.00;97125.91;4819202;29;19949;-68
2022/03/30 12:38:06;;;;;;;;;;;;;;;10.13;100.00;97129.69;4826077;29;19962;-68
2022/03/30 12:40:35;;;;;;;;;;;;;;;10.24;100.00;97123.94;4827073;29;19957;-68
2022/03/30 12:43:02;;;;;;;;;;;;;;;10.22;100.00;97120.81;4821744;29;19952;-68
2022/03/30 12:45:30;;;;;;;;;;;;;;;10.33;100.00;97104.63;4824595;29;19953;-69
2022/03/30 12:48:01;;;;;;;;;;;;;;;10.25;100.00;97103.16;4822997;29;19950;-69
2022/03/30 12:50:33;;;;;;;;;;;;;;;10.40;100.00;97104.50;4824531;29;19955;-68
2022/03/30 12:53:05;;;;;;;;;;;;;;;10.49;100.00;97104.75;4828786;29;19977;-68
2022/03/30 12:55:34;;;;;;;;;;;;;;;10.27;100.00;97109.16;4818665;29;19951;-68
2022/03/30 12:58:13;;;;;;;;;;;;;;;10.38;100.00;97104.16;4825782;29;20030;-68
2022/03/30 13:00:42;;;;;;;;;;;;;;;10.44;100.00;97100.44;4826990;29;19950;-68
2022/03/30 13:03:09;;;;;;;;;;;;;;;10.36;100.00;97090.63;4829289;29;19977;-69
2022/03/30 13:05:38;;;;;;;;;;;;;;;10.32;100.00;97094.69;4826445;29;19954;-69
2022/03/30 13:08:12;;;;;;;;;;;;;;;10.33;100.00;97091.47;4824766;29;20283;-68
2022/03/30 13:10:50;;;;;;;;;;;;;;;10.47;100.00;97084.81;4826547;29;20399;-68
2022/03/30 13:13:19;;;;;;;;;;;;;;;10.48;100.00;97080.81;4826395;29;19954;-68
2022/03/30 13:15:46;;;;;;;;;;;;;;;10.51;100.00;97082.78;4811423;29;19951;-68
2022/03/30 13:18:15;;;;;;;;;;;;;;;10.35;100.00;97075.06;4820764;29;20370;-69
2022/03/30 13:20:51;;;;;;;;;;;;;;;10.28;100.00;97074.38;4822353;29;19950;-68
2022/03/30 13:23:19;;;;;;;;;;;;;;;10.42;100.00;97080.50;4826796;29;19971;-68
2022/03/30 13:25:46;;;;;;;;;;;;;;;10.39;100.00;97072.97;4826536;29;20335;-68
2022/03/30 13:28:21;;;;;;;;;;;;;;;10.51;100.00;97068.78;4818649;29;19961;-68
2022/03/30 13:30:48;;;;;;;;;;;;;;;10.57;100.00;97061.47;4825810;29;20263;-68
2022/03/30 13:33:15;;;;;;;;;;;;;;;10.61;100.00;97055.84;4817502;29;19960;-68
2022/03/30 13:35:47;;;;;;;;;;;;;;;10.63;100.00;97051.41;4810068;29;20350;-68
2022/03/30 13:38:16;;;;;;;;;;;;;;;10.66;100.00;97052.53;4823943;29;20840;-68
2022/03/30 13:40:43;;;;;;;;;;;;;;;10.66;100.00;97052.53;4829413;29;19952;-68
2022/03/30 13:43:11;;;;;;;;;;;;;;;10.72;100.00;97042.44;4825026;29;19967;-68
2022/03/30 13:45:38;;;;;;;;;;;;;;;10.67;100.00;97038.13;4829749;29;19956;-68
2022/03/30 13:48:06;;;;;;;;;;;;;;;10.77;100.00;97034.34;4817292;29;19952;-68
2022/03/30 13:50:33;;;;;;;;;;;;;;;10.83;100.00;97029.81;4824764;29;19959;-68
2022/03/30 13:53:03;;;;;;;;;;;;;;;10.72;100.00;97020.84;4824645;29;19955;-68
2022/03/30 13:55:31;;;;;;;;;;;;;;;10.91;100.00;97017.25;4828104;29;19952;-68
2022/03/30 13:57:59;;;;;;;;;;;;;;;11.02;100.00;97017.06;4829343;29;19956;-68
2022/03/30 14:00:27;;;;;;;;;;;;;;;11.11;100.00;97017.25;4829816;29;19970;-69
2022/03/30 14:02:56;;;;;;;;;;;;;;;11.27;100.00;97010.91;4828043;29;19976;-68
2022/03/30 14:05:25;;;;;;;;;;;;;;;11.36;100.00;97011.09;4828792;29;19954;-68
2022/03/30 14:07:53;;;;;;;;;;;;;;;11.21;100.00;97005.03;4829162;29;20389;-69
2022/03/30 14:10:24;;;;;;;;;;;;;;;11.43;100.00;97003.34;4823901;29;19951;-69
2022/03/30 14:12:52;;;;;;;;;;;;;;;11.25;100.00;96991.75;4822853;29;19951;-68
2022/03/30 14:15:20;;;;;;;;;;;;;;;11.04;100.00;96983.84;4827216;29;19955;-68
2022/03/30 14:17:48;;;;;;;;;;;;;;;11.18;100.00;96986.31;4811660;29;20354;-69
2022/03/30 14:20:16;;;;;;;;;;;;;;;11.11;100.00;96987.28;4827818;29;19958;-68
2022/03/30 14:22:45;;;;;;;;;;;;;;;11.16;100.00;96981.16;4828634;29;19972;-69
2022/03/30 14:25:12;;;;;;;;;;;;;;;11.08;100.00;96982.53;4815057;29;19951;-69
2022/03/30 14:27:39;;;;;;;;;;;;;;;11.16;100.00;96980.38;4825344;29;19950;-69
2022/03/30 14:30:08;;;;;;;;;;;;;;;10.99;100.00;96976.75;4828764;29;19948;-69
2022/03/30 14:32:36;;;;;;;;;;;;;;;10.97;100.00;96968.00;4829617;29;19953;-69
2022/03/30 14:35:04;;;;;;;;;;;;;;;11.01;100.00;96963.09;4815821;29;20239;-68
2022/03/30 14:37:34;;;;;;;;;;;;;;;11.15;100.00;96962.78;4826636;29;19948;-68
2022/03/30 14:40:02;;;;;;;;;;;;;;;10.97;100.00;96962.41;4828168;29;20266;-68
2022/03/30 14:42:29;;;;;;;;;;;;;;;10.85;100.00;96967.88;4828636;29;19970;-69
2022/03/30 14:44:56;;;;;;;;;;;;;;;10.82;100.00;96949.16;4816605;29;19951;-69
2022/03/30 14:47:24;;;;;;;;;;;;;;;10.81;100.00;96947.59;4830801;29;19955;-68
2022/03/30 14:49:51;;;;;;;;;;;;;;;10.70;100.00;96945.00;4817535;29;19953;-68
2022/03/30 14:52:19;;;;;;;;;;;;;;;10.79;100.00;96945.22;4802525;29;19954;-69
2022/03/30 14:54:46;;;;;;;;;;;;;;;10.81;100.00;96945.56;4827074;29;19949;-68
2022/03/30 14:57:13;;;;;;;;;;;;;;;10.74;100.00;96939.34;4828344;29;20348;-68
2022/03/30 14:59:41;;;;;;;;;;;;;;;10.70;100.00;96936.63;4823671;29;19961;-68
2022/03/30 15:02:08;;;;;;;;;;;;;;;10.82;100.00;96930.38;4826332;29;19967;-69
2022/03/30 15:04:35;;;;;;;;;;;;;;;10.90;100.00;96919.81;4819740;29;19951;-68
2022/03/30 15:07:03;;;;;;;;;;;;;;;10.90;100.00;96920.63;4815857;29;19959;-68
2022/03/30 15:09:31;;;;;;;;;;;;;;;10.82;100.00;96924.00;4821135;29;19967;-68
2022/03/30 15:11:58;;;;;;;;;;;;;;;10.74;100.00;96917.75;4827937;29;19949;-68
2022/03/30 15:14:26;;;;;;;;;;;;;;;10.93;100.00;96907.78;4821125;29;19959;-69
2022/03/30 15:16:53;;;;;;;;;;;;;;;10.99;100.00;96909.63;4823691;29;19948;-68
2022/03/30 15:19:21;;;;;;;;;;;;;;;10.93;100.00;96911.34;4824548;29;20373;-68
2022/03/30 15:21:49;;;;;;;;;;;;;;;10.97;100.00;96911.28;4824966;29;20294;-69
2022/03/30 15:24:16;;;;;;;;;;;;;;;11.03;100.00;96903.94;4825656;29;19957;-68
2022/03/30 15:26:43;;;;;;;;;;;;;;;11.02;100.00;96908.75;4827887;29;19948;-68
2022/03/30 15:29:12;;;;;;;;;;;;;;;10.99;100.00;96900.44;4828838;29;19966;-69
2022/03/30 15:31:39;;;;;;;;;;;;;;;10.88;100.00;96900.66;4829209;29;20310;-68
2022/03/30 15:34:06;;;;;;;;;;;;;;;10.88;100.00;96897.88;4826890;29;19952;-69
2022/03/30 15:36:33;;;;;;;;;;;;;;;10.94;100.00;96898.16;4828250;29;20213;-69
2022/03/30 15:39:01;;;;;;;;;;;;;;;10.86;100.00;96897.53;4827898;29;20341;-69
2022/03/30 15:41:28;;;;;;;;;;;;;;;10.83;100.00;96887.19;4827062;29;19958;-68
2022/03/30 15:43:56;;;;;;;;;;;;;;;10.87;100.00;96881.53;4822512;29;19967;-68
2022/03/30 15:46:23;;;;;;;;;;;;;;;10.86;100.00;96883.53;4826533;29;19949;-69
2022/03/30 15:48:50;;;;;;;;;;;;;;;10.89;100.00;96884.69;4825867;29;19952;-69
2022/03/30 15:51:18;;;;;;;;;;;;;;;10.75;100.00;96874.63;4824675;29;19956;-68
2022/03/30 15:53:46;;;;;;;;;;;;;;;10.83;100.00;96876.00;4825725;29;19989;-69
2022/03/30 15:56:14;;;;;;;;;;;;;;;10.86;100.00;96869.56;4828213;29;20373;-69
2022/03/30 15:58:41;;;;;;;;;;;;;;;10.87;100.00;96868.34;4825608;29;20254;-68
2022/03/30 16:01:09;;;;;;;;;;;;;;;10.83;100.00;96866.84;4822366;29;19982;-68
2022/03/30 16:03:36;;;;;;;;;;;;;;;10.94;100.00;96865.38;4820360;29;19966;-68
2022/03/30 16:06:05;;;;;;;;;;;;;;;10.98;100.00;96859.72;4827921;29;19950;-68
2022/03/30 16:14:04;;;;;;;;;;;;;;;10.75;100.00;96854.25;4810223;29;19958;-68
2022/03/30 16:16:32;;;;;;;;;;;;;;;10.84;100.00;96855.22;4823316;29;19952;-68
2022/03/30 16:19:00;;;;;;;;;;;;;;;10.80;100.00;96853.75;4816228;29;19964;-68
2022/03/30 16:21:30;;;;;;;;;;;;;;;10.73;100.00;96857.50;4826964;29;20269;-68
2022/03/30 16:23:57;;;;;;;;;;;;;;;10.76;100.00;96848.22;4826946;29;19968;-69
2022/03/30 16:26:25;;;;;;;;;;;;;;;10.75;100.00;96846.66;4821771;29;20025;-69
2022/03/30 16:28:52;;;;;;;;;;;;;;;10.76;100.00;96839.81;4826867;29;19951;-69
2022/03/30 16:31:21;;;;;;;;;;;;;;;10.76;100.00;96845.41;4822291;29;20390;-68
2022/03/30 16:33:48;;;;;;;;;;;;;;;10.78;100.00;96839.41;4821751;29;19951;-68
2022/03/30 16:36:16;;;;;;;;;;;;;;;10.74;100.00;96830.28;4822101;29;20355;-68
2022/03/30 16:38:44;;;;;;;;;;;;;;;10.74;100.00;96833.88;4820259;29;19956;-68
2022/03/30 16:41:11;;;;;;;;;;;;;;;10.68;100.00;96830.03;4822621;29;19956;-68
2022/03/30 16:43:39;;;;;;;;;;;;;;;10.72;100.00;96833.53;4825168;29;19976;-68
2022/03/30 16:46:07;;;;;;;;;;;;;;;10.73;100.00;96834.34;4814762;29;19955;-69
2022/03/30 16:48:47;;;;;;;;;;;;;;;10.67;100.00;96834.06;4820124;29;19950;-69
2022/03/30 16:51:17;;;;;;;;;;;;;;;10.75;100.00;96837.47;4828500;29;19950;-69
2022/03/30 16:53:45;;;;;;;;;;;;;;;10.68;100.00;96846.03;4817913;29;19963;-69
2022/03/30 16:56:12;;;;;;;;;;;;;;;10.69;100.00;96837.19;4823209;29;19956;-68
2022/03/30 16:58:40;;;;;;;;;;;;;;;10.67;100.00;96845.22;4824883;29;20366;-69
2022/03/30 17:01:12;;;;;;;;;;;;;;;10.52;100.00;96843.97;4823605;29;19954;-68
2022/03/30 17:03:40;;;;;;;;;;;;;;;10.60;100.00;96842.59;4821802;29;20294;-69
2022/03/30 17:06:08;;;;;;;;;;;;;;;10.54;100.00;96836.72;4820093;29;19952;-68
2022/03/30 17:11:21;;;;;;;;;;;;;;;10.49;100.00;96833.66;4826710;29;19958;-68
2022/03/30 17:13:49;;;;;;;;;;;;;;;10.42;100.00;96834.59;4812840;29;19952;-69
2022/03/30 17:16:17;;;;;;;;;;;;;;;10.42;100.00;96833.81;4828134;29;19987;-68
2022/03/30 17:18:44;;;;;;;;;;;;;;;10.43;100.00;96829.81;4828327;29;19949;-68
2022/03/30 17:21:12;;;;;;;;;;;;;;;10.43;100.00;96825.00;4824405;29;19959;-68
2022/03/30 17:23:39;;;;;;;;;;;;;;;10.35;100.00;96820.78;4826698;29;19969;-68
2022/03/30 17:26:06;;;;;;;;;;;;;;;10.38;100.00;96819.94;4818190;29;19951;-68
2022/03/30 17:28:34;;;;;;;;;;;;;;;10.40;100.00;96827.88;4829404;29;20246;-68
2022/03/30 17:31:02;;;;;;;;;;;;;;;10.32;100.00;96826.47;4821725;29;19952;-68
2022/03/30 17:33:30;;;;;;;;;;;;;;;10.33;100.00;96820.44;4825752;29;19953;-68
2022/03/30 17:35:57;;;;;;;;;;;;;;;10.43;100.00;96821.41;4830230;29;19948;-69
2022/03/30 17:38:26;;;;;;;;;;;;;;;10.43;100.00;96813.03;4831526;29;19953;-68
2022/03/30 17:40:54;;;;;;;;;;;;;;;10.33;100.00;96814.84;4840322;29;19952;-69
2022/03/30 17:43:21;;;;;;;;;;;;;;;10.30;100.00;96809.31;4832448;29;19970;-70
2022/03/30 17:45:50;;;;;;;;;;;;;;;10.29;100.00;96808.56;4828043;29;20357;-68
2022/03/30 17:53:50;;;;;;;;;;;;;;;10.19;100.00;96811.56;4821861;29;19959;-68
2022/03/30 17:56:18;;;;;;;;;;;;;;;10.23;100.00;96804.69;4828287;29;19955;-68
2022/03/30 17:58:45;;;;;;;;;;;;;;;10.19;100.00;96803.97;4829191;29;20268;-68
2022/03/30 18:01:13;;;;;;;;;;;;;;;10.20;100.00;96804.75;4828996;29;19960;-68
2022/03/30 18:03:40;;;;;;;;;;;;;;;10.14;100.00;96803.69;4826679;29;20254;-69
2022/03/30 18:06:10;;;;;;;;;;;;;;;10.10;100.00;96800.94;4818089;29;19955;-69
2022/03/30 18:08:37;;;;;;;;;;;;;;;10.07;100.00;96801.03;4820802;29;19955;-69
2022/03/30 18:11:05;;;;;;;;;;;;;;;10.06;100.00;96800.22;4824551;29;20371;-69
2022/03/30 18:13:34;;;;;;;;;;;;;;;10.10;100.00;96805.75;4828544;29;19955;-69
2022/03/30 18:16:01;;;;;;;;;;;;;;;10.11;100.00;96802.53;4829476;29;19961;-68
2022/03/30 18:18:29;;;;;;;;;;;;;;;10.05;100.00;96795.09;4821483;29;19955;-68
2022/03/30 18:20:56;;;;;;;;;;;;;;;10.04;100.00;96799.88;4823684;29;19952;-68
2022/03/30 18:23:24;;;;;;;;;;;;;;;10.01;100.00;96800.72;4828578;29;19973;-68
2022/03/30 18:25:52;;;;;;;;;;;;;;;9.91;100.00;96788.56;4818118;29;19950;-68
2022/03/30 18:28:20;;;;;;;;;;;;;;;9.93;100.00;96794.50;4829250;29;19952;-68
2022/03/30 18:30:49;;;;;;;;;;;;;;;10.02;100.00;96793.16;4829062;29;19959;-69
2022/03/30 18:33:17;;;;;;;;;;;;;;;9.90;100.00;96798.16;4826383;29;19952;-72